createdAt,value
2022-10-04T00:01:54.508Z,12.17
2022-10-04T00:04:26.832Z,12.41
2022-10-04T00:07:04.038Z,12.42
2022-10-04T00:09:37.573Z,12.41
2022-10-04T00:12:06.816Z,12.39
2022-10-04T00:14:38.494Z,12.40
2022-10-04T00:17:14.041Z,12.39
2022-10-04T00:19:45.553Z,12.36
2022-10-04T00:22:18.327Z,12.35
2022-10-04T00:25:20.612Z,12.32
2022-10-04T00:28:27.672Z,12.30
2022-10-04T00:31:13.782Z,12.29
2022-10-04T00:33:43.158Z,12.28
2022-10-04T00:36:41.348Z,12.25
2022-10-04T00:39:39.909Z,12.24
2022-10-04T00:42:44.829Z,12.23
2022-10-04T00:45:29.486Z,12.24
2022-10-04T00:48:19.246Z,12.23
2022-10-04T00:50:53.020Z,12.22
2022-10-04T00:53:37.795Z,12.22
2022-10-04T00:56:13.025Z,12.22
2022-10-04T00:59:04.787Z,12.21
2022-10-04T01:01:36.295Z,12.19
2022-10-04T01:04:07.905Z,12.18
2022-10-04T01:06:38.086Z,12.17
2022-10-04T01:09:10.391Z,12.18
2022-10-04T01:11:45.493Z,12.17
2022-10-04T01:14:22.209Z,12.17
2022-10-04T01:16:52.476Z,12.18
2022-10-04T01:19:30.676Z,12.20
2022-10-04T01:22:04.179Z,12.18
2022-10-04T01:24:37.315Z,12.20
2022-10-04T01:27:25.601Z,12.18
2022-10-04T01:29:53.478Z,12.17
2022-10-04T01:32:21.352Z,12.19
2022-10-04T01:34:49.232Z,12.19
2022-10-04T01:37:17.728Z,12.19
2022-10-04T01:39:47.241Z,12.22
2022-10-04T01:42:19.633Z,12.21
2022-10-04T01:44:53.727Z,12.17
2022-10-04T01:47:27.436Z,12.21
2022-10-04T01:49:59.934Z,12.18
2022-10-04T01:52:35.009Z,12.17
2022-10-04T01:55:07.870Z,12.18
2022-10-04T01:57:37.547Z,11.89
2022-10-04T02:00:08.850Z,12.11
2022-10-04T02:02:43.337Z,12.13
2022-10-04T02:05:14.704Z,12.11
2022-10-04T02:07:43.628Z,12.10
2022-10-04T02:10:18.565Z,12.11
2022-10-04T02:12:49.645Z,12.10
2022-10-04T02:15:21.399Z,12.10
2022-10-04T02:17:50.641Z,12.08
2022-10-04T02:20:21.373Z,12.09
2022-10-04T02:22:52.855Z,12.09
2022-10-04T02:25:22.510Z,12.08
2022-10-04T02:27:55.560Z,12.06
2022-10-04T02:30:24.578Z,12.05
2022-10-04T02:33:00.651Z,12.06
2022-10-04T02:35:35.624Z,12.05
2022-10-04T02:38:10.954Z,12.05
2022-10-04T02:40:46.444Z,12.03
2022-10-04T02:43:20.734Z,12.01
2022-10-04T02:45:54.097Z,12.00
2022-10-04T02:48:38.460Z,11.98
2022-10-04T02:51:25.562Z,11.96
2022-10-04T02:54:03.860Z,11.93
2022-10-04T02:56:34.512Z,11.90
2022-10-04T02:59:03.626Z,11.88
2022-10-04T03:01:46.898Z,11.88
2022-10-04T03:04:16.062Z,11.82
2022-10-04T03:06:46.777Z,11.82
2022-10-04T03:09:16.205Z,11.82
2022-10-04T03:11:46.517Z,11.80
2022-10-04T03:14:18.383Z,11.80
2022-10-04T03:16:48.577Z,11.78
2022-10-04T03:19:19.289Z,11.79
2022-10-04T03:21:49.464Z,11.79
2022-10-04T03:24:21.427Z,11.79
2022-10-04T03:26:55.307Z,11.78
2022-10-04T03:29:25.648Z,11.79
2022-10-04T03:31:58.128Z,11.78
2022-10-04T03:34:28.583Z,11.77
2022-10-04T03:36:58.750Z,11.77
2022-10-04T03:39:30.589Z,11.76
2022-10-04T03:42:04.257Z,11.73
2022-10-04T03:44:32.978Z,11.72
2022-10-04T03:47:01.437Z,11.71
2022-10-04T03:49:34.692Z,11.71
2022-10-04T03:52:04.084Z,11.69
2022-10-04T03:54:33.198Z,11.69
2022-10-04T03:57:03.398Z,11.68
2022-10-04T03:59:31.238Z,11.64
2022-10-04T04:02:07.144Z,11.67
2022-10-04T04:04:43.597Z,11.64
2022-10-04T04:07:14.957Z,11.64
2022-10-04T04:09:46.364Z,11.63
2022-10-04T04:12:20.834Z,11.62
2022-10-04T04:14:52.078Z,11.61
2022-10-04T04:17:39.072Z,11.60
2022-10-04T04:20:20.054Z,11.59
2022-10-04T04:23:00.658Z,11.58
2022-10-04T04:25:32.221Z,11.57
2022-10-04T04:28:08.636Z,11.56
2022-10-04T04:30:39.444Z,11.54
2022-10-04T04:33:20.352Z,11.55
2022-10-04T04:35:49.190Z,11.52
2022-10-04T04:38:24.236Z,11.55
2022-10-04T04:40:55.561Z,11.51
2022-10-04T04:43:27.494Z,11.54
2022-10-04T04:46:22.300Z,11.49
2022-10-04T04:48:47.716Z,11.48
2022-10-04T04:51:21.834Z,11.51
2022-10-04T04:53:50.919Z,11.47
2022-10-04T04:56:21.478Z,11.44
2022-10-04T04:58:53.702Z,11.44
2022-10-04T05:01:26.677Z,11.38
2022-10-04T05:04:02.231Z,11.37
2022-10-04T05:06:32.017Z,11.33
2022-10-04T05:08:59.806Z,11.30
2022-10-04T05:11:31.071Z,11.28
2022-10-04T05:14:05.820Z,11.28
2022-10-04T05:16:39.786Z,11.25
2022-10-04T05:19:13.025Z,11.25
2022-10-04T05:21:45.492Z,11.23
2022-10-04T05:24:20.722Z,11.20
2022-10-04T05:26:51.965Z,11.20
2022-10-04T05:29:24.093Z,11.21
2022-10-04T05:32:03.585Z,11.19
2022-10-04T05:34:39.907Z,11.19
2022-10-04T05:37:22.359Z,11.20
2022-10-04T05:39:58.534Z,11.17
2022-10-04T05:42:37.749Z,11.20
2022-10-04T05:45:15.286Z,11.20
2022-10-04T05:47:44.426Z,11.17
2022-10-04T05:50:18.640Z,11.21
2022-10-04T05:52:50.908Z,11.19
2022-10-04T05:55:27.090Z,11.19
2022-10-04T05:58:18.439Z,11.23
2022-10-04T06:01:08.616Z,11.23
2022-10-04T06:04:04.871Z,11.24
2022-10-04T06:06:40.757Z,11.25
2022-10-04T06:09:15.967Z,11.26
2022-10-04T06:11:55.711Z,11.29
2022-10-04T06:15:05.353Z,11.29
2022-10-04T06:17:58.637Z,11.30
2022-10-04T06:20:35.516Z,11.05
2022-10-04T06:23:12.939Z,11.31
2022-10-04T06:25:47.957Z,11.36
2022-10-04T06:28:23.852Z,11.39
2022-10-04T06:31:26.305Z,11.43
2022-10-04T06:34:23.083Z,11.45
2022-10-04T06:37:10.963Z,11.50
2022-10-04T06:39:58.481Z,11.56
2022-10-04T06:42:49.225Z,11.66
2022-10-04T06:45:44.513Z,11.77
2022-10-04T06:48:35.403Z,11.91
2022-10-04T06:51:15.073Z,12.03
2022-10-04T06:53:58.131Z,12.13
2022-10-04T06:56:33.306Z,11.93
2022-10-04T06:59:19.582Z,12.29
2022-10-04T07:01:51.425Z,12.37
2022-10-04T07:04:28.878Z,12.43
2022-10-04T07:07:35.967Z,12.51
2022-10-04T07:10:31.052Z,12.54
2022-10-04T07:13:14.433Z,12.65
2022-10-04T07:15:48.215Z,12.69
2022-10-04T07:18:32.750Z,12.74
2022-10-04T07:21:06.789Z,12.78
2022-10-04T07:23:40.706Z,12.82
2022-10-04T07:26:21.392Z,12.87
2022-10-04T07:29:08.573Z,12.86
2022-10-04T07:31:38.235Z,12.89
2022-10-04T07:34:12.498Z,12.95
2022-10-04T07:36:46.354Z,13.00
2022-10-04T07:39:18.838Z,13.06
2022-10-04T07:41:51.692Z,13.11
2022-10-04T07:44:26.443Z,12.90
2022-10-04T07:46:59.218Z,13.20
2022-10-04T07:49:27.358Z,12.98
2022-10-04T07:52:26.717Z,13.28
2022-10-04T07:55:07.543Z,13.33
2022-10-04T07:57:44.991Z,13.31
2022-10-04T08:00:18.701Z,13.30
2022-10-04T08:02:59.963Z,13.28
2022-10-04T08:05:36.571Z,13.25
2022-10-04T08:08:27.991Z,13.20
2022-10-04T08:11:17.226Z,13.15
2022-10-04T08:13:55.607Z,13.13
2022-10-04T08:16:35.651Z,13.09
2022-10-04T08:19:21.705Z,13.08
2022-10-04T08:22:00.146Z,13.07
2022-10-04T08:24:33.685Z,13.06
2022-10-04T08:27:24.268Z,13.07
2022-10-04T08:30:12.287Z,13.04
2022-10-04T08:32:55.876Z,13.06
2022-10-04T08:35:36.207Z,13.05
2022-10-04T08:38:27.284Z,13.08
2022-10-04T08:41:42.623Z,13.06
2022-10-04T08:44:43.076Z,13.10
2022-10-04T08:47:43.952Z,13.15
2022-10-04T08:50:39.799Z,13.24
2022-10-04T08:54:01.293Z,13.34
2022-10-04T08:56:46.628Z,13.50
2022-10-04T08:59:37.728Z,13.63
2022-10-04T09:02:34.630Z,13.77
2022-10-04T09:05:32.329Z,13.92
2022-10-04T09:08:59.218Z,14.05
2022-10-04T09:11:46.439Z,14.25
2022-10-04T09:14:51.178Z,14.38
2022-10-04T09:17:24.055Z,14.48
2022-10-04T09:20:09.071Z,14.63
2022-10-04T09:22:51.398Z,14.72
2022-10-04T09:25:58.254Z,14.84
2022-10-04T09:29:04.966Z,14.94
2022-10-04T09:32:04.371Z,15.03
2022-10-04T09:34:42.887Z,15.16
2022-10-04T09:37:30.293Z,15.27
2022-10-04T09:40:37.567Z,15.33
2022-10-04T09:43:24.803Z,15.48
2022-10-04T09:46:15.877Z,15.54
2022-10-04T09:48:58.291Z,15.62
2022-10-04T09:51:42.216Z,15.72
2022-10-04T09:54:33.501Z,15.86
2022-10-04T09:57:22.783Z,15.96
2022-10-04T10:00:10.438Z,16.08
2022-10-04T10:03:04.352Z,16.22
2022-10-04T10:05:53.686Z,16.35
2022-10-04T10:08:28.497Z,16.48
2022-10-04T10:11:25.371Z,16.61
2022-10-04T10:14:35.640Z,16.68
2022-10-04T10:17:16.068Z,16.79
2022-10-04T10:20:10.505Z,16.87
2022-10-04T10:22:59.632Z,16.94
2022-10-04T10:25:41.549Z,17.01
2022-10-04T10:28:31.810Z,17.07
2022-10-04T10:31:18.636Z,17.17
2022-10-04T10:34:33.729Z,17.18
2022-10-04T10:37:10.939Z,17.34
2022-10-04T10:40:03.982Z,17.41
2022-10-04T10:42:55.594Z,17.20
2022-10-04T10:45:45.773Z,17.59
2022-10-04T10:48:18.444Z,17.68
2022-10-04T10:51:02.700Z,17.48
2022-10-04T10:53:48.448Z,17.87
2022-10-04T10:56:35.304Z,17.99
2022-10-04T10:59:37.380Z,18.08
2022-10-04T11:02:49.512Z,18.20
2022-10-04T11:05:38.259Z,18.29
2022-10-04T11:08:22.117Z,18.42
2022-10-04T11:11:17.390Z,18.49
2022-10-04T11:14:22.531Z,18.59
2022-10-04T11:17:13.159Z,18.66
2022-10-04T11:20:27.726Z,18.65
2022-10-04T11:23:52.358Z,18.67
2022-10-04T11:26:53.755Z,18.75
2022-10-04T11:29:35.198Z,18.82
2022-10-04T11:33:03.147Z,18.81
2022-10-04T11:35:47.098Z,18.90
2022-10-04T11:38:44.632Z,18.95
2022-10-04T11:41:17.161Z,18.99
2022-10-04T11:43:59.290Z,18.73
2022-10-04T11:46:40.254Z,19.05
2022-10-04T11:49:26.810Z,19.10
2022-10-04T11:52:40.692Z,19.08
2022-10-04T11:55:43.941Z,19.11
2022-10-04T11:58:17.959Z,18.85
2022-10-04T12:01:21.891Z,19.17
2022-10-04T12:04:38.145Z,19.20
2022-10-04T12:07:26.526Z,19.27
2022-10-04T12:10:04.306Z,19.29
2022-10-04T12:12:55.006Z,19.30
2022-10-04T12:15:45.480Z,19.31
2022-10-04T12:18:40.304Z,19.33
2022-10-04T12:21:44.351Z,19.31
2022-10-04T12:24:42.555Z,19.35
2022-10-04T12:27:39.200Z,19.38
2022-10-04T12:30:27.025Z,19.41
2022-10-04T12:33:05.966Z,19.44
2022-10-04T12:35:48.859Z,19.49
2022-10-04T12:38:57.937Z,19.47
2022-10-04T12:41:39.707Z,19.53
2022-10-04T12:44:25.507Z,19.55
2022-10-04T12:47:03.974Z,19.60
2022-10-04T12:49:43.244Z,19.65
2022-10-04T12:52:16.819Z,19.67
2022-10-04T12:54:46.140Z,19.69
2022-10-04T12:57:45.734Z,19.71
2022-10-04T13:00:20.722Z,19.72
2022-10-04T13:03:29.224Z,19.71
2022-10-04T13:06:09.205Z,19.74
2022-10-04T13:08:58.765Z,19.73
2022-10-04T13:11:52.361Z,19.77
2022-10-04T13:14:41.036Z,19.78
2022-10-04T13:17:27.252Z,19.83
2022-10-04T13:20:21.812Z,19.85
2022-10-04T13:22:57.807Z,19.85
2022-10-04T13:25:46.452Z,19.86
2022-10-04T13:28:23.241Z,19.88
2022-10-04T13:31:00.634Z,19.90
2022-10-04T13:33:41.586Z,19.92
2022-10-04T13:36:16.795Z,19.91
2022-10-04T13:39:14.900Z,19.93
2022-10-04T13:42:12.335Z,19.91
2022-10-04T13:44:57.667Z,19.93
2022-10-04T13:47:55.304Z,19.91
2022-10-04T13:50:34.219Z,19.92
2022-10-04T13:53:33.715Z,19.93
2022-10-04T13:56:25.118Z,19.90
2022-10-04T13:59:04.644Z,19.91
2022-10-04T14:02:01.577Z,19.91
2022-10-04T14:04:54.468Z,19.89
2022-10-04T14:07:30.650Z,19.56
2022-10-04T14:10:22.240Z,19.83
2022-10-04T14:13:52.315Z,19.72
2022-10-04T14:16:41.664Z,19.74
2022-10-04T14:19:44.847Z,19.70
2022-10-04T14:22:27.360Z,19.36
2022-10-04T14:25:21.348Z,19.58
2022-10-04T14:28:38.085Z,19.54
2022-10-04T14:31:24.180Z,19.55
2022-10-04T14:34:11.534Z,19.53
2022-10-04T14:37:09.316Z,19.48
2022-10-04T14:40:01.043Z,19.46
2022-10-04T14:42:58.271Z,19.43
2022-10-04T14:45:40.041Z,19.43
2022-10-04T14:48:30.652Z,19.42
2022-10-04T14:51:21.607Z,19.41
2022-10-04T14:53:56.089Z,19.38
2022-10-04T14:56:59.236Z,19.35
2022-10-04T14:59:36.775Z,19.02
2022-10-04T15:02:48.112Z,19.24
2022-10-04T15:05:38.980Z,19.25
2022-10-04T15:08:37.353Z,19.23
2022-10-04T15:11:09.229Z,19.23
2022-10-04T15:13:42.296Z,19.18
2022-10-04T15:16:20.910Z,19.19
2022-10-04T15:18:55.793Z,19.16
2022-10-04T15:21:42.964Z,19.13
2022-10-04T15:24:28.549Z,19.12
2022-10-04T15:27:41.040Z,19.04
2022-10-04T15:30:20.089Z,19.05
2022-10-04T15:33:00.881Z,19.03
2022-10-04T15:35:39.389Z,19.02
2022-10-04T15:38:20.476Z,19.01
2022-10-04T15:41:02.942Z,18.99
2022-10-04T15:43:37.585Z,18.95
2022-10-04T15:46:32.535Z,18.97
2022-10-04T15:49:18.946Z,18.93
2022-10-04T15:52:03.456Z,18.90
2022-10-04T15:54:52.318Z,18.89
2022-10-04T15:57:31.458Z,18.86
2022-10-04T16:00:08.779Z,18.85
2022-10-04T16:02:59.913Z,18.81
2022-10-04T16:05:39.640Z,18.81
2022-10-04T16:08:37.044Z,18.76
2022-10-04T16:11:31.072Z,18.76
2022-10-04T16:14:28.853Z,18.70
2022-10-04T16:17:29.788Z,18.70
2022-10-04T16:20:16.420Z,18.70
2022-10-04T16:23:24.010Z,18.65
2022-10-04T16:25:54.560Z,18.65
2022-10-04T16:28:32.604Z,18.64
2022-10-04T16:31:24.687Z,18.60
2022-10-04T16:34:02.342Z,18.57
2022-10-04T16:36:46.175Z,18.55
2022-10-04T16:39:50.918Z,18.50
2022-10-04T16:42:23.747Z,18.48
2022-10-04T16:44:56.019Z,18.46
2022-10-04T16:47:28.362Z,18.40
2022-10-04T16:49:58.840Z,18.37
2022-10-04T16:52:48.022Z,18.38
2022-10-04T16:55:53.129Z,18.29
2022-10-04T16:58:49.800Z,18.24
2022-10-04T17:01:56.735Z,18.17
2022-10-04T17:04:55.600Z,18.14
2022-10-04T17:07:38.563Z,18.12
2022-10-04T17:10:21.054Z,17.78
2022-10-04T17:12:57.482Z,17.98
2022-10-04T17:15:41.449Z,17.97
2022-10-04T17:18:19.514Z,17.92
2022-10-04T17:20:56.696Z,17.88
2022-10-04T17:23:59.105Z,17.81
2022-10-04T17:26:51.420Z,17.74
2022-10-04T17:29:37.029Z,17.68
2022-10-04T17:32:14.797Z,17.66
2022-10-04T17:35:02.109Z,17.61
2022-10-04T17:37:39.587Z,17.56
2022-10-04T17:40:37.031Z,17.50
2022-10-04T17:43:15.633Z,17.44
2022-10-04T17:45:59.921Z,17.40
2022-10-04T17:48:50.363Z,17.34
2022-10-04T17:51:57.239Z,17.25
2022-10-04T17:54:46.367Z,17.18
2022-10-04T17:57:24.539Z,17.12
2022-10-04T17:59:59.396Z,17.06
2022-10-04T18:02:45.651Z,17.01
2022-10-04T18:05:19.726Z,16.94
2022-10-04T18:07:55.414Z,16.89
2022-10-04T18:10:29.422Z,16.86
2022-10-04T18:13:02.126Z,16.82
2022-10-04T18:15:31.218Z,16.48
2022-10-04T18:18:14.122Z,16.70
2022-10-04T18:20:46.868Z,16.39
2022-10-04T18:23:19.145Z,16.56
2022-10-04T18:25:49.540Z,16.55
2022-10-04T18:28:22.894Z,16.53
2022-10-04T18:31:00.068Z,16.47
2022-10-04T18:33:45.509Z,16.41
2022-10-04T18:36:17.736Z,16.35
2022-10-04T18:38:48.486Z,16.27
2022-10-04T18:41:20.074Z,16.26
2022-10-04T18:43:53.044Z,16.21
2022-10-04T18:46:22.785Z,16.16
2022-10-04T18:48:56.567Z,16.14
2022-10-04T18:51:32.042Z,16.08
2022-10-04T18:54:14.927Z,16.05
2022-10-04T18:56:55.713Z,16.00
2022-10-04T19:00:07.236Z,15.96
2022-10-04T19:02:44.508Z,15.91
2022-10-04T19:05:21.105Z,15.89
2022-10-04T19:08:01.792Z,15.84
2022-10-04T19:10:34.203Z,15.81
2022-10-04T19:13:13.581Z,15.75
2022-10-04T19:15:47.547Z,15.72
2022-10-04T19:18:34.730Z,15.68
2022-10-04T19:21:12.402Z,15.64
2022-10-04T19:23:50.284Z,15.59
2022-10-04T19:26:32.014Z,15.54
2022-10-04T19:29:11.649Z,15.48
2022-10-04T19:31:49.502Z,15.43
2022-10-04T19:34:26.296Z,15.37
2022-10-04T19:37:01.048Z,15.37
2022-10-04T19:39:40.938Z,15.34
2022-10-04T19:42:13.613Z,15.29
2022-10-04T19:44:56.940Z,14.98
2022-10-04T19:47:37.224Z,15.18
2022-10-04T19:50:16.237Z,15.19
2022-10-04T19:52:53.646Z,15.16
2022-10-04T19:55:30.462Z,15.12
2022-10-04T19:58:07.473Z,15.08
2022-10-04T20:00:37.645Z,15.02
2022-10-04T20:03:11.497Z,15.03
2022-10-04T20:05:44.840Z,15.01
2022-10-04T20:08:14.615Z,14.95
2022-10-04T20:10:44.879Z,14.96
2022-10-04T20:13:23.756Z,14.92
2022-10-04T20:15:53.880Z,14.89
2022-10-04T20:18:57.783Z,14.86
2022-10-04T20:21:28.623Z,14.83
2022-10-04T20:24:00.617Z,14.79
2022-10-04T20:26:54.380Z,14.76
2022-10-04T20:30:05.346Z,14.72
2022-10-04T20:32:55.991Z,14.67
2022-10-04T20:36:06.842Z,14.63
2022-10-04T20:38:54.207Z,14.57
2022-10-04T20:42:03.044Z,14.53
2022-10-04T20:44:55.264Z,14.46
2022-10-04T20:47:31.788Z,14.43
2022-10-04T20:50:01.629Z,14.41
2022-10-04T20:52:32.371Z,14.37
2022-10-04T20:55:01.953Z,14.34
2022-10-04T20:57:31.825Z,14.32
2022-10-04T21:00:00.175Z,14.29
2022-10-04T21:02:28.914Z,14.26
2022-10-04T21:05:13.634Z,14.23
2022-10-04T21:07:41.613Z,14.18
2022-10-04T21:10:18.591Z,14.20
2022-10-04T21:12:49.528Z,14.16
2022-10-04T21:15:22.678Z,14.16
2022-10-04T21:18:02.758Z,14.14
2022-10-04T21:20:45.378Z,14.12
2022-10-04T21:23:24.096Z,14.10
2022-10-04T21:25:51.949Z,14.08
2022-10-04T21:28:42.248Z,14.09
2022-10-04T21:31:10.491Z,14.08
2022-10-04T21:33:38.657Z,14.09
2022-10-04T21:36:09.845Z,14.13
2022-10-04T21:38:37.971Z,14.10
2022-10-04T21:41:05.861Z,14.11
2022-10-04T21:43:33.810Z,14.12
2022-10-04T21:46:03.007Z,14.14
2022-10-04T21:48:30.941Z,14.12
2022-10-04T21:50:58.689Z,14.12
2022-10-04T21:53:26.528Z,14.13
2022-10-04T21:55:54.310Z,14.13
2022-10-04T21:58:22.207Z,14.12
2022-10-04T22:00:50.433Z,14.12
2022-10-04T22:03:19.681Z,14.13
2022-10-04T22:05:47.456Z,14.11
2022-10-04T22:08:15.359Z,14.11
2022-10-04T22:10:43.446Z,14.10
2022-10-04T22:13:11.256Z,14.10
2022-10-04T22:15:39.053Z,14.10
2022-10-04T22:18:07.130Z,14.11
2022-10-04T22:20:37.907Z,14.12
2022-10-04T22:23:12.146Z,14.11
2022-10-04T22:25:41.345Z,14.12
2022-10-04T22:28:19.085Z,14.12
2022-10-04T22:30:47.285Z,14.09
2022-10-04T22:33:28.666Z,14.10
2022-10-04T22:36:00.097Z,14.06
2022-10-04T22:38:27.947Z,14.03
2022-10-04T22:40:55.747Z,14.01
2022-10-04T22:43:23.689Z,13.98
2022-10-04T22:45:51.969Z,13.95
2022-10-04T22:48:19.913Z,13.91
2022-10-04T22:50:47.798Z,13.89
2022-10-04T22:53:20.692Z,13.89
2022-10-04T22:55:48.869Z,13.83
2022-10-04T22:58:17.428Z,13.81
2022-10-04T23:00:46.367Z,13.78
2022-10-04T23:03:26.050Z,13.78
2022-10-04T23:05:54.006Z,13.72
2022-10-04T23:08:23.112Z,13.72
2022-10-04T23:10:54.811Z,13.70
2022-10-04T23:13:24.829Z,13.67
2022-10-04T23:15:53.275Z,13.65
2022-10-04T23:18:21.327Z,13.62
2022-10-04T23:20:52.752Z,13.63
2022-10-04T23:23:22.181Z,13.60
2022-10-04T23:25:52.039Z,13.60
2022-10-04T23:28:20.375Z,13.58
2022-10-04T23:30:56.922Z,13.59
2022-10-04T23:33:25.210Z,13.56
2022-10-04T23:35:55.186Z,13.56
2022-10-04T23:38:24.411Z,13.53
2022-10-04T23:40:53.579Z,13.53
2022-10-04T23:43:25.000Z,13.52
2022-10-04T23:45:53.294Z,13.48
2022-10-04T23:48:25.230Z,13.48
2022-10-04T23:50:55.130Z,13.45
2022-10-04T23:53:26.716Z,13.45
2022-10-04T23:55:57.850Z,13.42
2022-10-04T23:58:31.006Z,13.40
